createdAt,value
2019-01-20T00:04:01.006Z,10.67
2019-01-20T00:09:56.008Z,10.87
2019-01-20T00:15:50.990Z,11.75
2019-01-20T00:21:45.986Z,9.93
2019-01-20T00:27:41.033Z,13.89
2019-01-20T00:33:36.016Z,19.79
2019-01-20T00:39:31.046Z,13.75
2019-01-20T00:45:26.091Z,8.58
2019-01-20T00:51:21.008Z,11.07
2019-01-20T00:57:16.040Z,10.06
2019-01-20T01:03:11.028Z,10.7
2019-01-20T01:09:06.059Z,8.53
2019-01-20T01:15:01.073Z,17.14
2019-01-20T01:20:56.014Z,12.79
2019-01-20T01:26:50.998Z,10.68
2019-01-20T01:32:46.026Z,10.29
2019-01-20T01:38:41.016Z,10.57
2019-01-20T01:44:36.019Z,11.1
2019-01-20T01:50:31.058Z,8.9
2019-01-20T01:56:26.010Z,8.67
2019-01-20T02:02:21.040Z,6.7
2019-01-20T02:08:16.039Z,7
2019-01-20T02:14:11.070Z,8.2
2019-01-20T02:20:06.029Z,8.04
2019-01-20T02:26:01.051Z,7.23
2019-01-20T02:31:56.038Z,5.84
2019-01-20T02:37:51.087Z,11.33
2019-01-20T03:01:31.070Z,8.05
2019-01-20T03:01:31.121Z,8.99
2019-01-20T03:01:31.122Z,8.99
2019-01-20T03:01:31.206Z,8.99
2019-01-20T03:07:26.043Z,10.61
2019-01-20T03:13:21.056Z,11.01
2019-01-20T03:19:16.035Z,6.57
2019-01-20T03:25:11.045Z,8.07
2019-01-20T03:31:06.070Z,6.78
2019-01-20T03:37:01.089Z,6.88
2019-01-20T03:42:56.069Z,18.39
2019-01-20T03:48:51.076Z,34.84
2019-01-20T03:54:46.048Z,12.09
2019-01-20T04:00:41.048Z,9.55
2019-01-20T04:06:36.061Z,13.05
2019-01-20T04:12:31.111Z,15.34
2019-01-20T04:18:26.135Z,10.77
2019-01-20T04:24:21.066Z,10.07
2019-01-20T04:30:16.071Z,13.7
2019-01-20T04:36:11.085Z,9.21
2019-01-20T04:42:06.054Z,6.32
2019-01-20T04:48:01.061Z,10.91
2019-01-20T04:53:56.086Z,11.67
2019-01-20T04:59:51.120Z,13.83
2019-01-20T05:05:46.059Z,15.63
2019-01-20T05:11:41.066Z,13.74
2019-01-20T05:17:36.068Z,9.14
2019-01-20T05:23:31.084Z,11.41
2019-01-20T05:29:26.189Z,5.65
2019-01-20T05:35:21.088Z,7.3
2019-01-20T05:59:01.092Z,7.23
2019-01-20T05:59:01.252Z,7.13
2019-01-20T05:59:01.264Z,7.13
2019-01-20T05:59:01.299Z,7.13
2019-01-20T06:04:56.070Z,6.8
2019-01-20T06:10:51.131Z,10.33
2019-01-20T06:16:46.109Z,7.07
2019-01-20T06:22:41.085Z,6.6
2019-01-20T06:28:36.077Z,22.56
2019-01-20T06:34:31.082Z,13.25
2019-01-20T06:40:26.107Z,9.27
2019-01-20T06:46:21.138Z,10.67
2019-01-20T06:52:16.119Z,10.68
2019-01-20T06:58:11.080Z,10.63
2019-01-20T07:04:06.097Z,12.41
2019-01-20T07:10:01.084Z,15.97
2019-01-20T07:15:56.099Z,19.62
2019-01-20T07:21:51.114Z,15.63
2019-01-20T07:27:46.116Z,11.76
2019-01-20T07:33:41.103Z,10.67
2019-01-20T07:39:37.173Z,12.6
2019-01-20T07:45:31.106Z,10.75
2019-01-20T07:51:26.114Z,17.57
2019-01-20T07:57:21.103Z,22.02
2019-01-20T08:03:16.107Z,19.4
2019-01-20T08:09:11.109Z,15.65
2019-01-20T08:15:06.105Z,15.43
2019-01-20T08:21:01.107Z,14.93
2019-01-20T08:26:56.121Z,17.99
2019-01-20T08:32:51.148Z,15.77
2019-01-20T08:38:46.139Z,15.02
2019-01-20T09:02:26.123Z,17.27
2019-01-20T09:02:26.322Z,22.6
2019-01-20T09:02:26.324Z,22.6
2019-01-20T09:02:26.353Z,22.6
2019-01-20T09:08:21.118Z,21.24
2019-01-20T09:14:16.154Z,13.6
2019-01-20T09:20:11.129Z,13.82
2019-01-20T09:26:06.133Z,21.02
2019-01-20T09:32:01.172Z,18.4
2019-01-20T09:37:56.133Z,17.28
2019-01-20T09:43:51.142Z,21
2019-01-20T09:49:46.123Z,14.76
2019-01-20T09:55:41.155Z,13.23
2019-01-20T10:01:36.158Z,11.06
2019-01-20T10:07:31.132Z,12.35
2019-01-20T10:13:26.183Z,14.13
2019-01-20T10:19:21.134Z,13.35
2019-01-20T10:25:16.141Z,12.65
2019-01-20T10:31:11.158Z,11.34
2019-01-20T10:37:06.156Z,11.16
2019-01-20T10:43:01.231Z,14.84
2019-01-20T10:48:56.200Z,10.15
2019-01-20T10:54:51.129Z,11
2019-01-20T11:00:46.189Z,11.92
2019-01-20T11:06:41.149Z,18.87
2019-01-20T11:12:36.154Z,16.32
2019-01-20T11:18:31.140Z,14.95
2019-01-20T11:24:26.145Z,18.29
2019-01-20T11:30:21.148Z,12.35
2019-01-20T11:36:16.161Z,21.79
2019-01-20T11:59:56.185Z,19.77
2019-01-20T11:59:56.239Z,10.05
2019-01-20T11:59:56.266Z,10.05
2019-01-20T11:59:56.277Z,10.05
2019-01-20T12:05:51.192Z,10.36
2019-01-20T12:11:46.181Z,10.91
2019-01-20T12:17:41.180Z,13.16
2019-01-20T12:23:36.172Z,10.07
2019-01-20T12:29:31.274Z,13.44
2019-01-20T12:35:26.187Z,10.58
2019-01-20T12:41:21.206Z,12.9
2019-01-20T12:47:16.183Z,11.98
2019-01-20T12:53:11.179Z,13.76
2019-01-20T12:59:06.177Z,10.6
2019-01-20T13:05:01.180Z,9.6
2019-01-20T13:10:56.159Z,12.44
2019-01-20T13:16:51.163Z,13.46
2019-01-20T13:22:46.166Z,17.05
2019-01-20T13:28:41.169Z,9.5
2019-01-20T13:34:36.194Z,12.42
2019-01-20T13:40:31.163Z,11.2
2019-01-20T13:46:26.187Z,13.5
2019-01-20T13:52:21.231Z,12.08
2019-01-20T13:58:16.177Z,10.7
2019-01-20T14:04:11.196Z,9.25
2019-01-20T14:10:06.171Z,7.52
2019-01-20T14:16:01.273Z,11.83
2019-01-20T14:21:56.164Z,18.78
2019-01-20T14:27:51.185Z,11.63
2019-01-20T14:33:46.190Z,10.35
2019-01-20T14:39:41.205Z,6.16
2019-01-20T15:03:21.205Z,14.75
2019-01-20T15:03:21.304Z,12.74
2019-01-20T15:03:21.305Z,12.74
2019-01-20T15:03:21.332Z,12.74
2019-01-20T15:09:16.249Z,11.35
2019-01-20T15:15:11.195Z,8.29
2019-01-20T15:21:06.176Z,10.37
2019-01-20T15:27:01.195Z,21.34
2019-01-20T15:32:56.201Z,10.96
2019-01-20T15:38:51.209Z,9.09
2019-01-20T15:44:46.202Z,12.4
2019-01-20T15:50:41.211Z,14.9
2019-01-20T15:56:36.215Z,15.71
2019-01-20T16:02:31.178Z,15.47
2019-01-20T16:08:26.231Z,19.13
2019-01-20T16:14:21.207Z,13.92
2019-01-20T16:20:16.209Z,9.65
2019-01-20T16:26:11.272Z,10.78
2019-01-20T16:32:06.213Z,12.37
2019-01-20T16:38:01.208Z,10.86
2019-01-20T16:43:56.216Z,10.62
2019-01-20T16:49:51.211Z,12.95
2019-01-20T16:55:46.255Z,10.42
2019-01-20T17:01:41.198Z,30.32
2019-01-20T17:07:36.200Z,81.1
2019-01-20T17:13:31.275Z,62.16
2019-01-20T17:19:26.215Z,56.18
2019-01-20T17:25:21.310Z,58.53
2019-01-20T17:31:16.210Z,51.46
2019-01-20T17:37:11.236Z,54.63
2019-01-20T18:00:51.226Z,36.94
2019-01-20T18:00:51.455Z,62.53
2019-01-20T18:00:51.471Z,62.53
2019-01-20T18:00:51.499Z,62.53
2019-01-20T18:06:46.210Z,60.96
2019-01-20T18:12:41.271Z,52.24
2019-01-20T18:18:36.212Z,13.57
2019-01-20T18:24:31.223Z,32.54
2019-01-20T18:30:26.223Z,20.19
2019-01-20T18:36:21.220Z,84.93
2019-01-20T18:42:16.232Z,45.95
2019-01-20T18:48:11.218Z,17.31
2019-01-20T18:54:06.280Z,27.14
2019-01-20T19:00:01.243Z,31.18
2019-01-20T19:05:56.291Z,14.93
2019-01-20T19:11:51.259Z,31.02
2019-01-20T19:17:46.236Z,22.42
2019-01-20T19:23:41.250Z,22.21
2019-01-20T19:29:36.274Z,79.47
2019-01-20T19:35:31.236Z,79.35
2019-01-20T19:41:26.253Z,121.6
2019-01-20T19:47:21.267Z,120.83
2019-01-20T19:53:16.263Z,80.84
2019-01-20T19:59:11.246Z,40.71
2019-01-20T20:05:06.269Z,29.55
2019-01-20T20:11:01.240Z,26.19
2019-01-20T20:16:56.276Z,27.4
2019-01-20T20:22:51.252Z,43.61
2019-01-20T20:28:46.255Z,28.82
2019-01-20T20:34:41.251Z,31.49
2019-01-20T20:40:36.288Z,33.57
2019-01-20T21:04:16.283Z,33.23
2019-01-20T21:04:16.317Z,20.53
2019-01-20T21:04:16.325Z,20.53
2019-01-20T21:04:16.355Z,20.53
2019-01-20T21:10:11.260Z,21.88
2019-01-20T21:16:06.271Z,21.34
2019-01-20T21:22:01.307Z,16.78
2019-01-20T21:27:56.286Z,27.51
2019-01-20T21:33:51.279Z,25.74
2019-01-20T21:39:46.270Z,26.42
2019-01-20T21:45:41.303Z,31.93
2019-01-20T21:51:36.312Z,31.65
2019-01-20T21:57:31.288Z,24.07
2019-01-20T22:03:26.271Z,25.34
2019-01-20T22:09:21.301Z,18.81
2019-01-20T22:15:16.283Z,26.61
2019-01-20T22:21:11.284Z,22.35
2019-01-20T22:27:06.293Z,17.17
2019-01-20T22:33:01.291Z,20.63
2019-01-20T22:38:56.286Z,12.02
2019-01-20T22:44:51.302Z,21.68
2019-01-20T22:50:46.297Z,14.12
2019-01-20T22:56:41.286Z,17.26
2019-01-20T23:02:36.283Z,11.62
2019-01-20T23:08:31.340Z,13.59
2019-01-20T23:14:26.308Z,11.83
2019-01-20T23:20:21.296Z,8.83
2019-01-20T23:26:16.307Z,13.47
2019-01-20T23:32:11.300Z,15.52
2019-01-20T23:38:06.299Z,15.82
